Station: Ansbach / Katterbach, ICAO: ETEB, Synop: Synop: 10755,
Koordinaten: 4919'00''N 01038'00''E, Hoehe: 467m, Entfernung: 22.19km
2018/04/24 13:57
ETEB 241357Z AUTO 26008G17KT 9999 CLR 19/10 A3005 RMK AO2 SLP182 T01880096 $


Station: Roth, ICAO: ETHR, Synop: Synop: 10765,
Koordinaten: 4913'00''N 01106'00''E, Hoehe: 388m, Entfernung: 23.74km
2013/12/05 06:53
ETHR 050653Z 25004KT 1200 BR OVC003 02/02 Q1027 AMB


Station: FEUCHT (USA-AF), ICAO: EDIG, Synop: Synop: 10764,
Koordinaten: 49 23 N 011 11 E, Hoehe: 386m, Entfernung: 38.77km


Station: Nuernberg, ICAO: EDDN, Synop: Synop: 10763,
Koordinaten: 4930'00''N 01103'00''E, Hoehe: 318m, Entfernung: 43.58km
2018/04/24 13:50
EDDN 241350Z 25013KT 220V280 CAVOK 20/07 Q1017 TEMPO 27015G25KT


Station: Illesheim, ICAO: ETIK, Synop: Synop: 10752,
Koordinaten: 4928'00''N 01023'00''E, Hoehe: 325m, Entfernung: 46.33km
2018/04/24 11:56
ETIK 241156Z 26010G19KT 9999 SCT043 BKN060 BKN200 19/08 A3010 RMK AO2A SLP186 WND DATA ESTMD ALSTG/SLP ESTMD 10178 20094 57008 $


Station: ILLESHEIM (USAF), ICAO: EDIK, Synop: Synop: 10752,
Koordinaten: 49 28 N 010 23 E, Hoehe: 325m, Entfernung: 46.33km


mehr Wetter
WetterInfo - adds.pl 2.6.003 DL3EL © 2004-2017 [376449]